• Join FlightAware (Why Join?)
  • Login
  • US Flag 
11:50PM EDT


 

Airport Tracker/Info


-or-


 

Live Flight TrackerFlight Track Log ✈ TRS221 ✈ 30-Jan-2014 ✈ KBWI - KDAY

Flight Track Log - Related Links

Times and Time Zones

All times are in EST time to prevent confusion due to time zone crossing. See the TRS221 flight status page for this flight to view local times or setup timezone preferences in your user account.

Time Position Orientation Groundspeed Altitude Reporting Facility
EST Latitude Longitude Course Direction KTS MPH feet Rate Location/Type
11:31PM 39.1667 -76.6500 49° Northeast 160 184 1,300  Level Potomac TRACON
11:32PM 39.2000 -76.6000 49° Northeast 228 262 3,100 1,800 Climbing Potomac TRACON
11:33PM 39.2167 -76.6667 288° West 226 260 5,000 2,280 Climbing Potomac TRACON
11:34PM 39.2167 -76.7500 270° West 243 280 7,700 2,580 Climbing Potomac TRACON
11:36PM 39.1731 -76.9008 250° West 261 300 12,500 2,160 Climbing Washington Center
11:37PM 39.1906 -77.0056 282° West 269 310 13,900 1,680 Climbing Washington Center
11:38PM 39.2142 -77.1186 285° West 314 361 15,900 1,920 Climbing Washington Center
11:39PM 39.2378 -77.2342 285° West 331 381 17,800 1,800 Climbing Washington Center
11:40PM 39.2611 -77.3581 284° West 344 396 19,500 1,560 Climbing Washington Center
11:41PM 39.2883 -77.4822 286° West 349 402 20,900 1,440 Climbing Washington Center
11:42PM 39.3111 -77.6114 283° West 360 414 22,400 1,320 Climbing Washington Center
11:43PM 39.3361 -77.7383 284° West 360 414 23,600 1,020 Climbing Washington Center
11:44PM 39.3608 -77.8706 284° West 365 420 24,600 900 Climbing Washington Center
11:45PM 39.3853 -78.0028 283° West 377 434 25,500 960 Climbing Washington Center
11:46PM 39.4097 -78.1353 283° West 377 434 26,500 960 Climbing Washington Center
11:47PM 39.4358 -78.2706 284° West 377 434 27,500 960 Climbing Washington Center
11:48PM 39.4619 -78.4061 284° West 377 434 28,500 1,080 Climbing Washington Center
11:50PM 39.5058 -78.6400 284° West 380 437 30,500 1,140 Climbing Cleveland Center
11:51PM 39.5292 -78.7689 283° West 375 432 31,600 1,020 Climbing Cleveland Center
11:52PM 39.5525 -78.8981 283° West 370 426 32,600 960 Climbing Cleveland Center
11:53PM 39.5708 -79.0047 283° West 366 421 33,600 660 Climbing Cleveland Center
11:54PM 39.6003 -79.1553 284° West 362 417 34,000 180 Climbing Cleveland Center
11:55PM 39.6217 -79.2778 283° West 352 405 34,000  Level Cleveland Center
11:56PM 39.6431 -79.4022 283° West 352 405 34,000  Level Cleveland Center
11:57PM 39.6661 -79.5286 283° West 355 409 34,000  Level Cleveland Center
11:58PM 39.6864 -79.6550 282° West 356 410 34,000  Level Cleveland Center
11:59PM 39.7081 -79.7792 283° West 355 409 34,000  Level Cleveland Center
12:00AM 39.7283 -79.9025 282° West 353 406 34,000  Level Cleveland Center
12:01AM 39.7494 -80.0256 283° West 350 403 34,000  Level Cleveland Center
12:02AM 39.7706 -80.1511 282° West 353 406 34,000  Level Cleveland Center
12:03AM 39.7919 -80.2742 283° West 351 404 34,000  Level Cleveland Center
12:04AM 39.8136 -80.4050 282° West 352 405 34,000  Level Cleveland Center
12:05AM 39.8331 -80.5278 282° West 354 407 34,000  Level Cleveland Center
12:06AM 39.8533 -80.6519 282° West 354 407 34,000 -300 Level Cleveland Center
12:07AM 39.8733 -80.7711 282° West 339 390 33,400 -960 Descending Cleveland Center
12:08AM 39.8928 -80.8975 281° West 349 402 32,100 -1,080 Descending Cleveland Center
12:09AM 39.9136 -81.0261 282° West 358 412 31,300 -900 Descending Cleveland Center
12:10AM 39.9344 -81.1600 282° West 364 419 30,300 -660 Descending Indianapolis Center
12:11AM 39.9550 -81.2883 282° West 365 420 30,000 -180 Descending Indianapolis Center
12:12AM 39.9758 -81.4294 281° West 368 423 30,000  Level Indianapolis Center
12:13AM 39.9972 -81.5611 282° West 368 423 30,000  Level Indianapolis Center
12:14AM 40.0172 -81.6925 281° West 366 421 30,000  Level Indianapolis Center
12:15AM 40.0369 -81.8197 281° West 367 422 30,000  Level Indianapolis Center
12:16AM 40.0572 -81.9481 282° West 364 419 30,000  Level Indianapolis Center
12:17AM 40.0756 -82.0794 280° West 368 423 30,000  Level Indianapolis Center
12:18AM 40.0953 -82.2072 281° West 362 417 30,000  Level Indianapolis Center
12:19AM 40.1147 -82.3369 281° West 365 420 30,000  Level Indianapolis Center
12:20AM 40.1331 -82.4650 281° West 362 417 30,000  Level Indianapolis Center
12:21AM 40.1519 -82.5950 281° West 365 420 30,000 -120 Level Indianapolis Center
12:22AM 40.1583 -82.7261 274° West 362 417 29,800 -1,260 Descending Indianapolis Center
12:23AM 40.1650 -82.8569 274° West 363 418 27,500 -2,700 Descending Indianapolis Center
12:24AM 40.1656 -83.0142 270° West 362 417 24,400 -3,060 Descending Indianapolis Center
12:25AM 40.1433 -83.1336 256° West 342 394 21,400 -2,940 Descending Indianapolis Center
12:26AM 40.1342 -83.1775 255° West 330 380 20,300 -3,000 Descending Indianapolis Center
12:26AM 40.1222 -83.2478 257° West 329 379 18,400 -3,000 Descending Indianapolis Center
12:26AM 40.1200 -83.2572 253° West 324 373 18,200 -2,880 Descending Indianapolis Center
12:27AM 40.1019 -83.3625 257° West 328 377 15,500 -2,880 Descending Indianapolis Center
12:27AM 40.1003 -83.3744 260° West 324 373 15,300 -2,760 Descending Indianapolis Center
12:28AM 40.0814 -83.4708 256° West 316 364 12,700 -3,120 Descending Indianapolis Center
12:28AM 40.0781 -83.4911 258° West 309 356 12,200 -1,500 Descending Indianapolis Center
12:29AM 40.0619 -83.5747 256° West 303 349 11,200 -1,140 Descending Indianapolis Center
12:29AM 40.0597 -83.5919 260° West 258 297 11,100 -840 Descending Indianapolis Center
12:30AM 40.0472 -83.6617 257° West 257 296 10,400 -900 Descending Indianapolis Center
12:30AM 40.0425 -83.6794 251° West 245 282 10,200 -1,620 Descending Indianapolis Center
12:31AM 40.0308 -83.7447 257° West 245 282 8,800 -1,800 Descending Indianapolis Center
12:32AM 40.0275 -83.7642 257° West 240 276 8,400 -1,800 Descending Indianapolis Center
12:32AM 40.0150 -83.8272 256° West 240 276 7,000 -1,680 Descending Indianapolis Center
12:33AM 40.0128 -83.8467 262° West 237 273 6,700 -1,500 Descending Indianapolis Center
12:35AM 39.9678 -84.0767 263° West 205 236 2,600 -1,440 Descending Indianapolis Center
12:35AM 39.9669 -84.0797 250° West 221 254 2,600  Level Indianapolis Center
12:36AM 39.9583 -84.1269 257° West 112 129 2,600  Level Indianapolis Center
12:36AM 39.9572 -84.1261 150° Southeast 164 189 2,600 -540 Level Indianapolis Center
12:37AM 39.9425 -84.1569 238° Southwest 86 99 2,100 -540 Descending Indianapolis Center
12:38AM 39.9433 -84.1569 360° North 120 138 2,100 -600 Level Indianapolis Center
12:38AM 39.9264 -84.1894 236° Southwest 107 123 1,500 -540 Descending Indianapolis Center
12:39AM 39.9300 -84.1819 58° Northeast 110 127 1,600 1,980 Climbing Indianapolis Center
12:41AM 39.9000 -84.2167 247° West  Level FlightAware Approximate
12:48AM 39.9022 -84.2194 247° West  Level Estimated
12:49AM 39.9000 -84.2167 247° West  Level FlightAware Approximate
12:50AM 39.9022 -84.2194 247° West  Level Estimated
12:51AM 39.9000 -84.2167 247° West  Level FlightAware Approximate
12:52AM 39.9022 -84.2194 247° West  Level Estimated
12:53AM 39.9000 -84.2167 247° West  Level FlightAware Approximate
12:54AM 39.9022 -84.2194 247° West  Level Estimated